UUMO 280430Z 21004MPS CAVOK M05/M09 Q1026 R25/590530 NOSIG RMK QFE754/1006
QNH:(hPa/inHg/mmHg)1026 / 30.3 / 770
QFE:(hPa/inHg/mmHg)1005 / 29.68 / 754
Temperature-5
Dew Point-9
Visibility> 10000
WeatherCAVOK
Cloud Cover
Transition Height0 m./600 ft.
Transition LevelFL20
SQUAWK